createdAt,value
2019-03-24T00:01:43.458Z,100261.33
2019-03-24T00:04:12.111Z,100260.59
2019-03-24T00:06:40.740Z,100265.55
2019-03-24T00:09:09.374Z,100265.91
2019-03-24T00:11:37.943Z,100272.86
2019-03-24T00:14:06.587Z,100271.61
2019-03-24T00:16:35.213Z,100269.48
2019-03-24T00:19:03.859Z,100260.83
2019-03-24T00:21:32.472Z,100265.23
2019-03-24T00:24:01.044Z,100259.06
2019-03-24T00:26:29.675Z,100260.25
2019-03-24T00:28:58.281Z,100258.14
2019-03-24T00:31:26.846Z,100253.02
2019-03-24T00:33:55.444Z,100255.28
2019-03-24T00:36:24.085Z,100250.14
2019-03-24T00:38:52.725Z,100240.63
2019-03-24T00:41:21.359Z,100236.65
2019-03-24T00:43:49.967Z,100233.78
2019-03-24T00:46:18.596Z,100246.41
2019-03-24T00:48:47.235Z,100234.81
2019-03-24T00:51:15.870Z,100232.66
2019-03-24T00:53:44.470Z,100225.78
2019-03-24T00:56:13.108Z,100225.44
2019-03-24T00:58:41.719Z,100236.34
2019-03-24T01:01:10.357Z,100228.41
2019-03-24T01:03:38.965Z,100226.39
2019-03-24T01:06:07.597Z,100220.79
2019-03-24T01:08:36.156Z,100224.66
2019-03-24T01:11:04.796Z,100219.54
2019-03-24T01:13:33.475Z,100220.00
2019-03-24T01:16:02.140Z,100223.97
2019-03-24T01:18:30.625Z,100218.36
2019-03-24T01:20:59.301Z,100218.35
2019-03-24T01:23:27.974Z,100218.84
2019-03-24T01:25:56.603Z,100213.30
2019-03-24T01:28:25.244Z,100216.34
2019-03-24T01:30:53.873Z,100209.39
2019-03-24T01:33:22.478Z,100208.52
2019-03-24T01:35:51.051Z,100214.17
2019-03-24T01:38:19.617Z,100214.20
2019-03-24T01:40:48.219Z,100219.80
2019-03-24T01:43:16.788Z,100213.34
2019-03-24T01:45:45.450Z,100215.05
2019-03-24T01:48:13.950Z,100221.56
2019-03-24T01:50:42.513Z,100218.95
2019-03-24T01:53:11.146Z,100222.41
2019-03-24T01:55:39.714Z,100226.73
2019-03-24T01:58:08.274Z,100221.09
2019-03-24T02:00:36.915Z,100219.76
2019-03-24T02:03:05.565Z,100217.58
2019-03-24T02:05:34.244Z,100213.27
2019-03-24T02:08:02.917Z,100210.30
2019-03-24T02:10:31.407Z,100218.50
2019-03-24T02:12:59.979Z,100215.89
2019-03-24T02:15:28.617Z,100212.86
2019-03-24T02:17:57.259Z,100211.09
2019-03-24T02:20:25.908Z,100207.65
2019-03-24T02:22:54.590Z,100213.33
2019-03-24T02:25:23.166Z,100213.33
2019-03-24T02:27:51.739Z,100215.44
2019-03-24T02:30:20.378Z,100207.66
2019-03-24T02:32:48.989Z,100212.39
2019-03-24T02:35:17.476Z,100210.53
2019-03-24T02:37:46.102Z,100212.20
2019-03-24T02:40:14.855Z,100208.67
2019-03-24T02:42:43.388Z,100202.66
2019-03-24T02:45:12.230Z,100209.99
2019-03-24T02:47:40.872Z,100203.56
2019-03-24T02:50:10.613Z,100201.00
2019-03-24T02:52:40.197Z,100196.66
2019-03-24T02:55:08.976Z,100209.09
2019-03-24T02:57:38.944Z,100199.92
2019-03-24T03:00:09.076Z,100210.15
2019-03-24T03:02:37.773Z,100199.66
2019-03-24T03:05:10.390Z,100202.59
2019-03-24T03:07:39.027Z,100201.21
2019-03-24T03:10:08.929Z,100196.39
2019-03-24T03:12:37.545Z,100198.05
2019-03-24T03:15:13.207Z,100198.39
2019-03-24T03:17:41.832Z,100192.27
2019-03-24T03:20:12.151Z,100199.56
2019-03-24T03:22:40.652Z,100200.02
2019-03-24T03:25:09.701Z,100200.02
2019-03-24T03:27:38.326Z,100200.85
2019-03-24T03:30:08.397Z,100201.28
2019-03-24T03:32:37.041Z,100208.11
2019-03-24T03:35:07.880Z,100197.38
2019-03-24T03:37:36.631Z,100209.95
2019-03-24T03:40:07.282Z,100203.63
2019-03-24T03:42:36.176Z,100211.34
2019-03-24T03:45:05.910Z,100213.80
2019-03-24T03:47:34.454Z,100212.58
2019-03-24T03:50:03.023Z,100208.59
2019-03-24T03:52:31.612Z,100218.50
2019-03-24T03:55:00.109Z,100212.55
2019-03-24T03:57:28.666Z,100210.02
2019-03-24T03:59:57.234Z,100207.01
2019-03-24T04:02:26.401Z,100206.58
2019-03-24T04:04:55.030Z,100204.36
2019-03-24T04:07:23.653Z,100202.17
2019-03-24T04:09:52.216Z,100204.36
2019-03-24T04:12:20.704Z,100204.36
2019-03-24T04:14:49.247Z,100212.11
2019-03-24T04:17:17.806Z,100211.71
2019-03-24T04:19:46.455Z,100206.08
2019-03-24T04:22:15.100Z,100209.50
2019-03-24T04:24:43.734Z,100208.33
2019-03-24T04:27:12.424Z,100204.91
2019-03-24T04:29:40.993Z,100206.73
2019-03-24T04:32:09.626Z,100215.95
2019-03-24T04:34:38.306Z,100214.30
2019-03-24T04:37:06.994Z,100209.63
2019-03-24T04:39:35.624Z,100211.35
2019-03-24T04:42:04.243Z,100209.58
2019-03-24T04:44:32.729Z,100216.09
2019-03-24T04:47:01.406Z,100212.67
2019-03-24T04:49:29.964Z,100208.81
2019-03-24T04:51:58.570Z,100215.28
2019-03-24T04:54:28.558Z,100213.94
2019-03-24T04:56:59.955Z,100214.83
2019-03-24T04:59:28.447Z,100218.22
2019-03-24T05:01:57.187Z,100222.53
2019-03-24T05:04:25.829Z,100221.25
2019-03-24T05:06:54.657Z,100219.55
2019-03-24T05:09:24.246Z,100219.59
2019-03-24T05:11:52.836Z,100217.50
2019-03-24T05:14:21.344Z,100220.13
2019-03-24T05:16:49.922Z,100222.73
2019-03-24T05:19:18.494Z,100221.55
2019-03-24T05:21:47.070Z,100223.78
2019-03-24T05:24:15.604Z,100226.86
2019-03-24T05:26:44.140Z,100223.02
2019-03-24T05:29:12.771Z,100220.45
2019-03-24T05:31:41.447Z,100217.90
2019-03-24T05:34:10.022Z,100216.23
2019-03-24T05:36:38.658Z,100216.25
2019-03-24T05:39:07.702Z,100217.98
2019-03-24T05:41:36.328Z,100221.00
2019-03-24T05:44:04.931Z,100228.80
2019-03-24T05:46:33.616Z,100224.89
2019-03-24T05:49:02.305Z,100221.05
2019-03-24T05:51:30.915Z,100221.05
2019-03-24T05:53:59.575Z,100213.77
2019-03-24T05:56:28.017Z,100216.34
2019-03-24T05:58:56.523Z,100215.92
2019-03-24T06:01:25.182Z,100218.03
2019-03-24T06:03:53.755Z,100212.78
2019-03-24T06:06:22.394Z,100216.14
2019-03-24T06:08:50.929Z,100211.25
2019-03-24T06:11:19.493Z,100215.91
2019-03-24T06:13:48.097Z,100210.20
2019-03-24T06:16:16.739Z,100216.48
2019-03-24T06:18:45.238Z,100213.65
2019-03-24T06:21:13.811Z,100213.45
2019-03-24T06:23:42.388Z,100207.22
2019-03-24T06:26:11.011Z,100205.14
2019-03-24T06:28:39.547Z,100212.28
2019-03-24T06:31:08.106Z,100212.34
2019-03-24T06:33:36.609Z,100209.73
2019-03-24T06:36:05.242Z,100210.05
2019-03-24T06:38:33.933Z,100210.95
2019-03-24T06:41:02.433Z,100208.94
2019-03-24T06:43:31.114Z,100207.09
2019-03-24T06:45:59.682Z,100203.41
2019-03-24T06:48:28.285Z,100208.95
2019-03-24T06:50:56.897Z,100205.55
2019-03-24T06:53:25.440Z,100200.94
2019-03-24T06:55:54.037Z,100203.22
2019-03-24T06:58:23.504Z,100209.20
2019-03-24T07:00:52.271Z,100215.70
2019-03-24T07:03:20.831Z,100204.14
2019-03-24T07:05:49.478Z,100200.07
2019-03-24T07:08:18.048Z,100200.56
2019-03-24T07:10:46.611Z,100188.78
2019-03-24T07:13:15.187Z,100182.44
2019-03-24T07:15:43.757Z,100185.41
2019-03-24T07:18:12.420Z,100182.49
2019-03-24T07:20:40.980Z,100184.79
2019-03-24T07:23:09.589Z,100188.98
2019-03-24T07:25:38.089Z,100181.67
2019-03-24T07:28:06.718Z,100179.64
2019-03-24T07:30:35.393Z,100186.66
2019-03-24T07:33:03.955Z,100187.22
2019-03-24T07:35:32.453Z,100189.29
2019-03-24T07:38:00.990Z,100192.98
2019-03-24T07:40:29.538Z,100187.13
2019-03-24T07:42:58.144Z,100180.39
2019-03-24T07:45:29.723Z,100178.52
2019-03-24T07:47:58.221Z,100185.89
2019-03-24T07:50:26.718Z,100174.06
2019-03-24T07:52:58.091Z,100168.53
2019-03-24T07:55:26.667Z,100171.41
2019-03-24T07:57:55.225Z,100168.41
2019-03-24T08:00:29.653Z,100163.55
2019-03-24T08:03:01.327Z,100163.70
2019-03-24T08:05:32.883Z,100154.97
2019-03-24T08:08:01.492Z,100159.44
2019-03-24T08:10:30.056Z,100160.11
2019-03-24T08:12:58.599Z,100154.81
2019-03-24T08:15:27.171Z,100156.41
2019-03-24T08:17:55.825Z,100155.18
2019-03-24T08:20:24.326Z,100155.03
2019-03-24T08:22:52.969Z,100148.74
2019-03-24T08:25:21.570Z,100133.62
2019-03-24T08:27:50.197Z,100143.54
2019-03-24T08:30:28.867Z,100132.55
2019-03-24T08:33:00.567Z,100124.16
2019-03-24T08:35:29.175Z,100121.67
2019-03-24T08:37:57.839Z,100125.16
2019-03-24T08:40:26.399Z,100118.42
2019-03-24T08:42:55.090Z,100117.97
2019-03-24T08:45:30.413Z,100119.50
2019-03-24T08:47:59.187Z,100108.28
2019-03-24T08:50:27.822Z,100111.17
2019-03-24T08:52:56.510Z,100107.13
2019-03-24T08:55:25.170Z,100105.94
2019-03-24T08:57:56.491Z,100111.60
2019-03-24T09:00:30.602Z,100103.47
2019-03-24T09:02:55.625Z,100099.23
2019-03-24T09:05:24.305Z,100098.15
2019-03-24T09:07:52.925Z,100098.13
2019-03-24T09:10:24.520Z,100096.72
2019-03-24T09:12:53.080Z,100091.14
2019-03-24T09:15:21.756Z,100088.36
2019-03-24T09:17:50.323Z,100079.43
2019-03-24T09:20:19.010Z,100079.64
2019-03-24T09:22:47.570Z,100074.31
2019-03-24T09:25:19.663Z,100071.14
2019-03-24T09:27:51.244Z,100069.86
2019-03-24T09:30:33.301Z,100065.38
2019-03-24T09:33:01.948Z,100055.93
2019-03-24T09:35:30.518Z,100047.50
2019-03-24T09:37:59.134Z,100046.67
2019-03-24T09:40:29.210Z,100037.37
2019-03-24T09:42:59.583Z,100035.08
2019-03-24T09:45:28.814Z,100031.12
2019-03-24T09:47:57.493Z,100035.78
2019-03-24T09:50:26.049Z,100031.95
2019-03-24T09:52:54.608Z,100031.78
2019-03-24T09:55:23.237Z,100030.21
2019-03-24T09:57:51.842Z,100014.18
2019-03-24T10:00:20.514Z,100015.75
2019-03-24T10:02:49.159Z,100004.66
2019-03-24T10:05:17.791Z,99993.90
2019-03-24T10:07:46.453Z,99993.42
2019-03-24T10:10:15.178Z,99997.02
2019-03-24T10:12:43.777Z,99997.19
2019-03-24T10:15:13.951Z,99992.19
2019-03-24T10:17:42.674Z,99986.34
2019-03-24T10:20:11.304Z,99990.64
2019-03-24T10:22:39.975Z,99981.71
2019-03-24T10:25:10.378Z,99977.89
2019-03-24T10:27:38.927Z,99977.03
2019-03-24T10:30:09.509Z,99970.08
2019-03-24T10:32:38.067Z,99973.73
2019-03-24T10:35:08.006Z,99965.73
2019-03-24T10:37:36.668Z,99963.91
2019-03-24T10:40:06.506Z,99961.45
2019-03-24T10:42:35.174Z,99954.13
2019-03-24T10:45:04.597Z,99946.30
2019-03-24T10:47:33.205Z,99937.51
2019-03-24T10:50:01.804Z,99938.55
2019-03-24T10:52:30.452Z,99932.79
2019-03-24T10:54:59.007Z,99932.09
2019-03-24T10:57:27.636Z,99935.26
2019-03-24T10:59:56.259Z,99929.99
2019-03-24T11:02:24.825Z,99918.91
2019-03-24T11:04:53.422Z,99913.82
2019-03-24T11:07:21.905Z,99902.84
2019-03-24T11:09:50.574Z,99905.88
2019-03-24T11:12:19.207Z,99903.78
2019-03-24T11:14:47.810Z,99897.44
2019-03-24T11:17:16.482Z,99900.64
2019-03-24T11:19:45.033Z,99900.28
2019-03-24T11:22:13.669Z,99895.22
2019-03-24T11:24:42.200Z,99885.71
2019-03-24T11:27:10.832Z,99879.07
2019-03-24T11:29:39.492Z,99879.81
2019-03-24T11:32:07.980Z,99872.61
2019-03-24T11:34:36.548Z,99868.48
2019-03-24T11:37:08.133Z,99862.61
2019-03-24T11:39:36.615Z,99856.82
2019-03-24T11:42:08.229Z,99854.73
2019-03-24T11:44:36.788Z,99838.19
2019-03-24T11:47:05.538Z,99841.26
2019-03-24T11:49:34.171Z,99836.44
2019-03-24T11:52:02.738Z,99837.20
2019-03-24T11:54:31.332Z,99831.57
2019-03-24T11:56:59.976Z,99826.95
2019-03-24T11:59:28.535Z,99820.20
2019-03-24T12:01:57.172Z,99818.92
2019-03-24T12:04:25.804Z,99812.05
2019-03-24T12:06:54.401Z,99801.05
2019-03-24T12:09:23.007Z,99795.59
2019-03-24T12:11:51.562Z,99788.16
2019-03-24T12:14:20.229Z,99787.70
2019-03-24T12:16:48.862Z,99793.25
2019-03-24T12:19:17.496Z,99788.46
2019-03-24T12:21:46.131Z,99778.31
2019-03-24T12:24:14.626Z,99772.14
2019-03-24T12:26:43.244Z,99765.08
2019-03-24T12:29:11.849Z,99774.45
2019-03-24T12:31:40.462Z,99764.44
2019-03-24T12:34:09.093Z,99758.96
2019-03-24T12:36:37.720Z,99757.80
2019-03-24T12:39:07.144Z,99749.63
2019-03-24T12:41:35.826Z,99748.07
2019-03-24T12:44:04.459Z,99743.09
2019-03-24T12:46:33.121Z,99741.41
2019-03-24T12:49:01.600Z,99733.34
2019-03-24T12:51:30.273Z,99734.68
2019-03-24T12:53:58.895Z,99733.56
2019-03-24T12:56:27.420Z,99722.67
2019-03-24T12:58:56.100Z,99727.26
2019-03-24T13:01:24.731Z,99716.88
2019-03-24T13:03:53.334Z,99718.83
2019-03-24T13:06:21.877Z,99715.09
2019-03-24T13:08:50.363Z,99717.30
2019-03-24T13:11:18.956Z,99717.22
2019-03-24T13:13:47.572Z,99709.48
2019-03-24T13:16:16.169Z,99708.23
2019-03-24T13:18:44.643Z,99703.27
2019-03-24T13:21:13.285Z,99699.73
2019-03-24T13:23:41.920Z,99695.40
2019-03-24T13:26:10.463Z,99693.28
2019-03-24T13:28:38.997Z,99695.41
2019-03-24T13:31:07.664Z,99686.39
2019-03-24T13:33:36.277Z,99689.88
2019-03-24T13:36:09.710Z,99693.08
2019-03-24T13:38:38.270Z,99691.13
2019-03-24T13:41:06.942Z,99680.66
2019-03-24T13:43:35.496Z,99680.89
2019-03-24T13:46:04.124Z,99671.92
2019-03-24T13:48:32.684Z,99667.84
2019-03-24T13:51:01.334Z,99658.13
2019-03-24T13:53:29.871Z,99656.32
2019-03-24T13:55:58.536Z,99647.00
2019-03-24T13:58:27.094Z,99655.17
2019-03-24T14:00:55.727Z,99649.52
2019-03-24T14:03:24.294Z,99644.31
2019-03-24T14:05:52.963Z,99647.67
2019-03-24T14:08:21.511Z,99639.05
2019-03-24T14:10:50.186Z,99639.05
2019-03-24T14:13:18.720Z,99635.94
2019-03-24T14:15:47.350Z,99639.42
2019-03-24T14:18:15.912Z,99627.77
2019-03-24T14:20:44.490Z,99633.03
2019-03-24T14:23:13.088Z,99624.25
2019-03-24T14:25:42.929Z,99627.28
2019-03-24T14:28:11.435Z,99619.58
2019-03-24T14:30:48.038Z,99617.83
2019-03-24T14:33:16.772Z,99623.06
2019-03-24T14:35:45.400Z,99616.28
2019-03-24T14:38:16.989Z,99617.48
2019-03-24T14:40:45.589Z,99609.36
2019-03-24T14:43:14.170Z,99609.80
2019-03-24T14:45:42.802Z,99608.56
2019-03-24T14:48:11.369Z,99603.38
2019-03-24T14:50:39.985Z,99605.73
2019-03-24T14:53:08.607Z,99594.95
2019-03-24T14:55:37.275Z,99596.80
2019-03-24T14:58:05.942Z,99597.94
2019-03-24T15:00:36.469Z,99596.80
2019-03-24T15:03:05.631Z,99599.13
2019-03-24T15:05:36.928Z,99594.23
2019-03-24T15:08:06.267Z,99597.66
2019-03-24T15:10:34.900Z,99590.92
2019-03-24T15:13:03.624Z,99593.86
2019-03-24T15:15:32.289Z,99589.48
2019-03-24T15:18:00.916Z,99595.17
2019-03-24T15:20:29.516Z,99591.69
2019-03-24T15:22:58.144Z,99593.95
2019-03-24T15:25:26.810Z,99593.30
2019-03-24T15:27:55.436Z,99591.23
2019-03-24T15:30:24.111Z,99592.75
2019-03-24T15:32:55.277Z,99601.22
2019-03-24T15:35:23.851Z,99591.45
2019-03-24T15:37:52.400Z,99590.70
2019-03-24T15:40:21.032Z,99587.47
2019-03-24T15:42:49.660Z,99587.04
2019-03-24T15:45:18.293Z,99586.59
2019-03-24T15:47:46.771Z,99593.98
2019-03-24T15:50:15.462Z,99591.94
2019-03-24T15:52:44.083Z,99593.86
2019-03-24T15:55:12.815Z,99592.79
2019-03-24T15:57:41.447Z,99593.75
2019-03-24T16:00:11.246Z,99593.97
2019-03-24T16:02:39.886Z,99596.72
2019-03-24T16:05:08.638Z,99591.28
2019-03-24T16:07:37.266Z,99589.37
2019-03-24T16:10:08.088Z,99590.47
2019-03-24T16:12:36.772Z,99588.30
2019-03-24T16:15:08.487Z,99580.73
2019-03-24T16:17:37.122Z,99584.07
2019-03-24T16:20:08.761Z,99587.47
2019-03-24T16:22:37.386Z,99594.56
2019-03-24T16:25:07.618Z,99594.56
2019-03-24T16:27:36.180Z,99599.98
2019-03-24T16:30:06.304Z,99600.45
2019-03-24T16:32:34.811Z,99610.90
2019-03-24T16:35:03.779Z,99613.70
2019-03-24T16:37:32.265Z,99616.61
2019-03-24T16:40:00.934Z,99604.05
2019-03-24T16:42:29.558Z,99610.05
2019-03-24T16:44:58.084Z,99610.39
2019-03-24T16:47:26.719Z,99616.65
2019-03-24T16:49:55.224Z,99619.97
2019-03-24T16:52:23.886Z,99614.62
2019-03-24T16:54:52.439Z,99617.06
2019-03-24T16:57:24.275Z,99617.06
2019-03-24T16:59:52.765Z,99613.70
2019-03-24T17:02:21.385Z,99620.19
2019-03-24T17:04:49.991Z,99623.23
2019-03-24T17:07:18.620Z,99627.28
2019-03-24T17:09:47.298Z,99629.83
2019-03-24T17:12:15.934Z,99636.98
2019-03-24T17:14:44.579Z,99633.88
2019-03-24T17:17:13.212Z,99638.69
2019-03-24T17:19:41.899Z,99637.30
2019-03-24T17:22:10.524Z,99639.44
2019-03-24T17:24:39.126Z,99640.26
2019-03-24T17:27:07.753Z,99641.92
2019-03-24T17:29:36.390Z,99645.93
2019-03-24T17:32:05.021Z,99641.03
2019-03-24T17:34:33.650Z,99643.88
2019-03-24T17:37:02.325Z,99642.66
2019-03-24T17:39:30.956Z,99639.48
2019-03-24T17:42:02.629Z,99642.33
2019-03-24T17:44:31.266Z,99641.74
2019-03-24T17:47:02.596Z,99643.84
2019-03-24T17:49:31.226Z,99650.66
2019-03-24T17:52:01.070Z,99647.15
2019-03-24T17:54:29.772Z,99650.27
2019-03-24T17:56:58.411Z,99653.09
2019-03-24T17:59:29.835Z,99654.72
2019-03-24T18:01:58.565Z,99657.81
2019-03-24T18:04:27.198Z,99656.64
2019-03-24T18:06:55.844Z,99659.05
2019-03-24T18:09:24.518Z,99664.95
2019-03-24T18:11:53.141Z,99659.59
2019-03-24T18:14:21.818Z,99665.23
2019-03-24T18:16:50.450Z,99677.09
2019-03-24T18:19:19.125Z,99679.79
2019-03-24T18:21:47.754Z,99686.99
2019-03-24T18:24:16.432Z,99683.48
2019-03-24T18:26:45.164Z,99682.25
2019-03-24T18:29:13.795Z,99685.52
2019-03-24T18:31:42.425Z,99682.38
2019-03-24T18:34:11.073Z,99690.72
2019-03-24T18:36:39.706Z,99686.44
2019-03-24T18:39:09.089Z,99693.17
2019-03-24T18:41:37.724Z,99693.25
2019-03-24T18:44:06.397Z,99695.94
2019-03-24T18:46:35.043Z,99693.88
2019-03-24T18:49:03.785Z,99692.55
2019-03-24T18:51:33.926Z,99693.41
2019-03-24T18:54:02.554Z,99690.17
2019-03-24T18:56:31.221Z,99691.63
2019-03-24T18:58:59.856Z,99690.17
2019-03-24T19:01:28.496Z,99691.98
2019-03-24T19:03:57.135Z,99692.23
2019-03-24T19:06:25.768Z,99696.63
2019-03-24T19:08:54.442Z,99696.95
2019-03-24T19:11:23.170Z,99700.86
2019-03-24T19:13:51.809Z,99701.60
2019-03-24T19:16:20.487Z,99700.59
2019-03-24T19:18:49.123Z,99706.50
2019-03-24T19:21:17.753Z,99718.57
2019-03-24T19:23:49.110Z,99721.36
2019-03-24T19:26:17.751Z,99717.17
2019-03-24T19:28:46.425Z,99718.43
2019-03-24T19:31:15.052Z,99720.59
2019-03-24T19:33:43.724Z,99721.89
2019-03-24T19:36:13.796Z,99721.86
2019-03-24T19:38:45.308Z,99725.89
2019-03-24T19:41:13.938Z,99732.50
2019-03-24T19:43:42.570Z,99731.33
2019-03-24T19:46:11.209Z,99725.08
2019-03-24T19:48:39.836Z,99729.19
2019-03-24T19:51:08.519Z,99725.22
2019-03-24T19:53:37.141Z,99726.41
2019-03-24T19:56:05.815Z,99720.23
2019-03-24T19:58:34.444Z,99724.80
2019-03-24T20:01:05.803Z,99730.43
2019-03-24T20:03:34.494Z,99731.80
2019-03-24T20:06:03.237Z,99731.22
2019-03-24T20:08:31.905Z,99737.03
2019-03-24T20:11:01.847Z,99738.02
2019-03-24T20:13:30.482Z,99735.10
2019-03-24T20:15:59.123Z,99737.78
2019-03-24T20:18:27.750Z,99740.53
2019-03-24T20:20:56.429Z,99743.14
2019-03-24T20:23:25.109Z,99741.01
2019-03-24T20:25:53.670Z,99739.27
2019-03-24T20:28:22.205Z,99736.77
2019-03-24T20:30:50.905Z,99737.14
2019-03-24T20:33:19.656Z,99735.73
2019-03-24T20:35:48.289Z,99736.95
2019-03-24T20:38:16.963Z,99736.73
2019-03-24T20:40:45.700Z,99736.85
2019-03-24T20:43:14.322Z,99732.52
2019-03-24T20:45:42.952Z,99737.58
2019-03-24T20:48:11.594Z,99737.03
2019-03-24T20:50:40.206Z,99732.34
2019-03-24T20:53:17.984Z,99735.08
2019-03-24T20:55:39.216Z,99733.53
2019-03-24T20:58:07.849Z,99729.30
2019-03-24T21:00:37.566Z,99734.66
2019-03-24T21:03:07.602Z,99735.63
2019-03-24T21:05:36.158Z,99736.30
2019-03-24T21:08:04.898Z,99741.86
2019-03-24T21:10:33.541Z,99741.89
2019-03-24T21:13:02.085Z,99748.12
2019-03-24T21:15:30.689Z,99748.14
2019-03-24T21:17:59.320Z,99754.19
2019-03-24T21:20:27.993Z,99754.24
2019-03-24T21:22:56.552Z,99756.48
2019-03-24T21:25:25.190Z,99756.59
2019-03-24T21:27:53.743Z,99762.23
2019-03-24T21:30:33.503Z,99762.72
2019-03-24T21:33:02.338Z,99759.28
2019-03-24T21:35:30.961Z,99761.58
2019-03-24T21:37:59.566Z,99759.49
2019-03-24T21:40:28.130Z,99760.77
2019-03-24T21:42:56.732Z,99759.92
2019-03-24T21:45:28.193Z,99754.69
2019-03-24T21:47:56.817Z,99757.70
2019-03-24T21:50:25.387Z,99755.63
2019-03-24T21:52:54.075Z,99758.22
2019-03-24T21:55:22.627Z,99761.66
2019-03-24T21:57:57.451Z,99760.70
2019-03-24T22:00:30.430Z,99756.33
2019-03-24T22:02:58.984Z,99757.27
2019-03-24T22:05:27.544Z,99754.20
2019-03-24T22:07:56.185Z,99749.43
2019-03-24T22:10:24.789Z,99758.04
2019-03-24T22:12:53.427Z,99753.28
2019-03-24T22:15:22.027Z,99745.12
2019-03-24T22:17:50.586Z,99744.23
2019-03-24T22:20:19.160Z,99747.63
2019-03-24T22:22:47.761Z,99755.44
2019-03-24T22:25:16.392Z,99757.16
2019-03-24T22:27:45.069Z,99751.55
2019-03-24T22:30:14.503Z,99744.23
2019-03-24T22:32:43.075Z,99750.77
2019-03-24T22:35:11.749Z,99755.95
2019-03-24T22:37:43.297Z,99752.15
2019-03-24T22:40:12.036Z,99760.36
2019-03-24T22:42:40.663Z,99764.72
2019-03-24T22:45:10.036Z,99767.31
2019-03-24T22:47:41.333Z,99769.45
2019-03-24T22:50:10.164Z,99762.14
2019-03-24T22:52:38.841Z,99762.16
2019-03-24T22:55:08.921Z,99764.33
2019-03-24T22:57:37.485Z,99773.39
2019-03-24T23:00:15.046Z,99774.22
2019-03-24T23:02:44.047Z,99775.53
2019-03-24T23:05:12.828Z,99767.34
2019-03-24T23:07:41.392Z,99769.08
2019-03-24T23:10:10.127Z,99765.62
2019-03-24T23:12:38.683Z,99771.20
2019-03-24T23:15:07.660Z,99769.92
2019-03-24T23:17:36.394Z,99763.48
2019-03-24T23:20:06.936Z,99765.19
2019-03-24T23:22:35.541Z,99763.47
2019-03-24T23:25:06.082Z,99766.94
2019-03-24T23:27:34.750Z,99756.55
2019-03-24T23:30:03.776Z,99769.05
2019-03-24T23:32:32.457Z,99755.67
2019-03-24T23:35:01.018Z,99755.22
2019-03-24T23:37:29.573Z,99753.47
2019-03-24T23:39:58.074Z,99755.67
2019-03-24T23:42:26.751Z,99748.79
2019-03-24T23:44:55.389Z,99752.65
2019-03-24T23:47:23.937Z,99744.00
2019-03-24T23:49:52.609Z,99737.94
2019-03-24T23:52:21.234Z,99734.02
2019-03-24T23:54:49.916Z,99732.75
2019-03-24T23:57:18.478Z,99731.91
2019-03-24T23:59:47.042Z,99729.31
